sensor_id;sensor_type;location;lat;lon;timestamp;temperature;humidity
57466;DHT22;67033;44.984;20.068;2023-04-25T00:01:30;14.90;99.90
57466;DHT22;67033;44.984;20.068;2023-04-25T00:03:56;14.90;99.90
57466;DHT22;67033;44.984;20.068;2023-04-25T00:06:22;14.90;99.90
57466;DHT22;67033;44.984;20.068;2023-04-25T07:40:22;13.70;99.90
57466;DHT22;67033;44.984;20.068;2023-04-25T07:42:48;13.80;99.90
57466;DHT22;67033;44.984;20.068;2023-04-25T07:45:14;13.90;99.90
57466;DHT22;67033;44.984;20.068;2023-04-25T07:47:40;13.90;99.90
57466;DHT22;67033;44.984;20.068;2023-04-25T07:50:07;14.10;99.90
57466;DHT22;67033;44.984;20.068;2023-04-25T07:52:33;14.00;99.90
57466;DHT22;67033;44.984;20.068;2023-04-25T07:54:59;14.00;99.90
57466;DHT22;67033;44.984;20.068;2023-04-25T07:57:25;14.00;99.90
57466;DHT22;67033;44.984;20.068;2023-04-25T08:34:08;15.20;99.90
57466;DHT22;67033;44.984;20.068;2023-04-25T08:36:34;15.30;99.90
57466;DHT22;67033;44.984;20.068;2023-04-25T08:38:59;15.30;99.90
57466;DHT22;67033;44.984;20.068;2023-04-25T08:41:27;15.30;99.90
57466;DHT22;67033;44.984;20.068;2023-04-25T08:43:53;15.30;99.90
57466;DHT22;67033;44.984;20.068;2023-04-25T08:46:21;15.20;99.90
57466;DHT22;67033;44.984;20.068;2023-04-25T08:48:49;15.20;99.90
57466;DHT22;67033;44.984;20.068;2023-04-25T08:53:53;15.70;99.90
57466;DHT22;67033;44.984;20.068;2023-04-25T08:56:19;15.70;99.90
57466;DHT22;67033;44.984;20.068;2023-04-25T09:01:18;16.00;99.90
57466;DHT22;67033;44.984;20.068;2023-04-25T09:03:45;15.90;99.90
57466;DHT22;67033;44.984;20.068;2023-04-25T09:06:13;15.90;99.90
57466;DHT22;67033;44.984;20.068;2023-04-25T09:08:39;16.10;99.90
57466;DHT22;67033;44.984;20.068;2023-04-25T09:11:06;16.20;99.90
57466;DHT22;67033;44.984;20.068;2023-04-25T09:13:33;16.30;99.90
57466;DHT22;67033;44.984;20.068;2023-04-25T09:15:59;16.30;99.90
57466;DHT22;67033;44.984;20.068;2023-04-25T09:18:32;16.00;99.90
57466;DHT22;67033;44.984;20.068;2023-04-25T09:21:06;15.90;99.90
57466;DHT22;67033;44.984;20.068;2023-04-25T09:23:46;15.80;99.90
57466;DHT22;67033;44.984;20.068;2023-04-25T09:26:17;16.70;99.90
57466;DHT22;67033;44.984;20.068;2023-04-25T09:28:43;16.80;99.90
57466;DHT22;67033;44.984;20.068;2023-04-25T09:31:12;16.50;99.60
57466;DHT22;67033;44.984;20.068;2023-04-25T09:33:38;16.40;99.90
57466;DHT22;67033;44.984;20.068;2023-04-25T09:36:08;16.60;99.90
57466;DHT22;67033;44.984;20.068;2023-04-25T09:38:45;16.40;99.90
57466;DHT22;67033;44.984;20.068;2023-04-25T09:41:12;16.30;99.90
57466;DHT22;67033;44.984;20.068;2023-04-25T09:43:38;16.60;99.50
57466;DHT22;67033;44.984;20.068;2023-04-25T09:46:09;16.70;98.30
57466;DHT22;67033;44.984;20.068;2023-04-25T09:48:36;16.90;93.80
57466;DHT22;67033;44.984;20.068;2023-04-25T09:51:11;16.70;94.40
57466;DHT22;67033;44.984;20.068;2023-04-25T09:53:40;16.40;96.00
57466;DHT22;67033;44.984;20.068;2023-04-25T10:03:39;16.20;99.40
57466;DHT22;67033;44.984;20.068;2023-04-25T10:06:12;16.80;99.90
57466;DHT22;67033;44.984;20.068;2023-04-25T10:08:40;17.40;99.90
57466;DHT22;67033;44.984;20.068;2023-04-25T10:11:08;17.40;94.40
57466;DHT22;67033;44.984;20.068;2023-04-25T10:13:35;17.60;94.10
57466;DHT22;67033;44.984;20.068;2023-04-25T10:16:02;18.10;97.70
57466;DHT22;67033;44.984;20.068;2023-04-25T10:21:00;18.40;90.40
57466;DHT22;67033;44.984;20.068;2023-04-25T10:23:27;18.40;84.00
57466;DHT22;67033;44.984;20.068;2023-04-25T10:25:55;18.30;83.10
57466;DHT22;67033;44.984;20.068;2023-04-25T10:28:21;18.50;85.40
57466;DHT22;67033;44.984;20.068;2023-04-25T10:31:02;18.10;84.90
57466;DHT22;67033;44.984;20.068;2023-04-25T10:33:39;17.70;84.40
57466;DHT22;67033;44.984;20.068;2023-04-25T10:36:11;17.40;90.30
57466;DHT22;67033;44.984;20.068;2023-04-25T10:38:37;17.00;91.90
57466;DHT22;67033;44.984;20.068;2023-04-25T10:41:08;16.80;93.00
57466;DHT22;67033;44.984;20.068;2023-04-25T10:43:42;16.70;93.10
57466;DHT22;67033;44.984;20.068;2023-04-25T10:46:19;16.90;93.00
57466;DHT22;67033;44.984;20.068;2023-04-25T10:48:55;16.70;92.20
57466;DHT22;67033;44.984;20.068;2023-04-25T10:51:27;17.30;95.70
57466;DHT22;67033;44.984;20.068;2023-04-25T10:54:00;17.60;93.10
57466;DHT22;67033;44.984;20.068;2023-04-25T10:56:29;18.00;92.50
57466;DHT22;67033;44.984;20.068;2023-04-25T11:01:43;17.70;90.70
57466;DHT22;67033;44.984;20.068;2023-04-25T11:04:32;17.80;90.50
57466;DHT22;67033;44.984;20.068;2023-04-25T11:12:04;18.50;90.80
57466;DHT22;67033;44.984;20.068;2023-04-25T11:14:31;19.20;90.50
57466;DHT22;67033;44.984;20.068;2023-04-25T11:16:58;18.90;82.70
57466;DHT22;67033;44.984;20.068;2023-04-25T11:19:25;18.80;89.40
57466;DHT22;67033;44.984;20.068;2023-04-25T11:21:58;18.90;90.00
57466;DHT22;67033;44.984;20.068;2023-04-25T11:24:31;18.60;85.70
57466;DHT22;67033;44.984;20.068;2023-04-25T11:27:01;18.50;86.20
57466;DHT22;67033;44.984;20.068;2023-04-25T11:29:29;18.30;87.10
57466;DHT22;67033;44.984;20.068;2023-04-25T11:31:56;18.20;87.30
57466;DHT22;67033;44.984;20.068;2023-04-25T11:34:26;18.10;84.90
57466;DHT22;67033;44.984;20.068;2023-04-25T11:36:52;18.40;89.90
57466;DHT22;67033;44.984;20.068;2023-04-25T11:39:21;18.30;85.80
57466;DHT22;67033;44.984;20.068;2023-04-25T11:41:49;18.40;85.40
57466;DHT22;67033;44.984;20.068;2023-04-25T11:44:16;18.20;82.80
57466;DHT22;67033;44.984;20.068;2023-04-25T11:46:43;18.20;84.00
57466;DHT22;67033;44.984;20.068;2023-04-25T11:49:09;18.20;79.90
57466;DHT22;67033;44.984;20.068;2023-04-25T11:51:41;18.60;79.50
57466;DHT22;67033;44.984;20.068;2023-04-25T11:54:09;18.70;78.30
57466;DHT22;67033;44.984;20.068;2023-04-25T11:56:34;18.60;79.90
57466;DHT22;67033;44.984;20.068;2023-04-25T11:59:02;18.50;77.10
57466;DHT22;67033;44.984;20.068;2023-04-25T12:01:29;18.80;79.10
57466;DHT22;67033;44.984;20.068;2023-04-25T12:03:56;19.10;76.70
57466;DHT22;67033;44.984;20.068;2023-04-25T12:06:31;18.90;77.40
57466;DHT22;67033;44.984;20.068;2023-04-25T12:09:06;18.80;74.20
57466;DHT22;67033;44.984;20.068;2023-04-25T12:11:32;18.50;77.00
57466;DHT22;67033;44.984;20.068;2023-04-25T12:14:04;18.20;76.40
57466;DHT22;67033;44.984;20.068;2023-04-25T12:16:46;18.30;76.50
57466;DHT22;67033;44.984;20.068;2023-04-25T12:19:15;18.10;78.70
57466;DHT22;67033;44.984;20.068;2023-04-25T12:21:41;18.10;81.20
57466;DHT22;67033;44.984;20.068;2023-04-25T12:26:49;17.70;83.40
57466;DHT22;67033;44.984;20.068;2023-04-25T12:29:20;17.60;85.50
57466;DHT22;67033;44.984;20.068;2023-04-25T12:31:47;17.40;85.40
57466;DHT22;67033;44.984;20.068;2023-04-25T12:34:13;17.50;85.40
57466;DHT22;67033;44.984;20.068;2023-04-25T12:36:39;17.90;84.10
57466;DHT22;67033;44.984;20.068;2023-04-25T12:39:04;17.80;81.90
57466;DHT22;67033;44.984;20.068;2023-04-25T12:41:31;17.70;84.20
57466;DHT22;67033;44.984;20.068;2023-04-25T12:43:56;17.90;81.50
57466;DHT22;67033;44.984;20.068;2023-04-25T12:46:22;18.40;81.60
57466;DHT22;67033;44.984;20.068;2023-04-25T12:48:49;18.50;81.40
57466;DHT22;67033;44.984;20.068;2023-04-25T12:51:14;18.60;79.50
57466;DHT22;67033;44.984;20.068;2023-04-25T12:53:41;18.80;77.70
57466;DHT22;67033;44.984;20.068;2023-04-25T12:56:08;18.90;75.60
57466;DHT22;67033;44.984;20.068;2023-04-25T12:58:34;19.10;75.80
57466;DHT22;67033;44.984;20.068;2023-04-25T13:00:59;18.90;74.90
57466;DHT22;67033;44.984;20.068;2023-04-25T13:03:25;18.80;72.90
57466;DHT22;67033;44.984;20.068;2023-04-25T13:05:52;18.80;73.40
57466;DHT22;67033;44.984;20.068;2023-04-25T13:08:21;18.80;75.20
57466;DHT22;67033;44.984;20.068;2023-04-25T13:10:49;18.90;73.40
57466;DHT22;67033;44.984;20.068;2023-04-25T13:13:15;19.20;72.10
57466;DHT22;67033;44.984;20.068;2023-04-25T13:15:42;19.70;70.70
57466;DHT22;67033;44.984;20.068;2023-04-25T13:20:34;20.00;95.70
57466;DHT22;67033;44.984;20.068;2023-04-25T13:23:00;20.00;73.70
57466;DHT22;67033;44.984;20.068;2023-04-25T13:25:26;20.10;70.00
57466;DHT22;67033;44.984;20.068;2023-04-25T13:27:52;20.40;72.80
57466;DHT22;67033;44.984;20.068;2023-04-25T13:30:18;20.10;67.50
57466;DHT22;67033;44.984;20.068;2023-04-25T13:32:44;20.00;66.20
57466;DHT22;67033;44.984;20.068;2023-04-25T13:35:12;20.10;68.00
57466;DHT22;67033;44.984;20.068;2023-04-25T13:37:38;20.00;64.10
57466;DHT22;67033;44.984;20.068;2023-04-25T13:40:07;20.10;66.50
57466;DHT22;67033;44.984;20.068;2023-04-25T13:42:35;20.20;66.40
57466;DHT22;67033;44.984;20.068;2023-04-25T13:45:01;20.00;67.50
57466;DHT22;67033;44.984;20.068;2023-04-25T13:47:27;19.90;65.50
57466;DHT22;67033;44.984;20.068;2023-04-25T13:49:53;19.40;66.10
57466;DHT22;67033;44.984;20.068;2023-04-25T13:52:20;19.50;68.40
57466;DHT22;67033;44.984;20.068;2023-04-25T13:54:46;19.20;67.20
57466;DHT22;67033;44.984;20.068;2023-04-25T13:57:12;19.10;69.40
57466;DHT22;67033;44.984;20.068;2023-04-25T13:59:39;19.00;68.70
57466;DHT22;67033;44.984;20.068;2023-04-25T14:02:06;19.50;68.50
57466;DHT22;67033;44.984;20.068;2023-04-25T14:04:33;19.70;67.30
57466;DHT22;67033;44.984;20.068;2023-04-25T14:06:59;19.20;65.50
57466;DHT22;67033;44.984;20.068;2023-04-25T14:09:25;19.20;67.80
57466;DHT22;67033;44.984;20.068;2023-04-25T14:11:53;19.20;68.70
57466;DHT22;67033;44.984;20.068;2023-04-25T14:14:19;19.20;68.30
57466;DHT22;67033;44.984;20.068;2023-04-25T14:16:46;19.40;67.40
57466;DHT22;67033;44.984;20.068;2023-04-25T14:19:14;19.60;67.70
57466;DHT22;67033;44.984;20.068;2023-04-25T14:21:40;19.40;66.20
57466;DHT22;67033;44.984;20.068;2023-04-25T14:24:06;19.40;65.70
57466;DHT22;67033;44.984;20.068;2023-04-25T14:26:33;19.60;65.60
57466;DHT22;67033;44.984;20.068;2023-04-25T14:29:00;19.90;65.00
57466;DHT22;67033;44.984;20.068;2023-04-25T14:31:26;20.10;65.60
57466;DHT22;67033;44.984;20.068;2023-04-25T14:33:51;20.10;61.60
57466;DHT22;67033;44.984;20.068;2023-04-25T14:36:17;19.60;62.00
57466;DHT22;67033;44.984;20.068;2023-04-25T14:38:44;19.20;63.30
57466;DHT22;67033;44.984;20.068;2023-04-25T14:41:10;19.40;64.10
57466;DHT22;67033;44.984;20.068;2023-04-25T14:43:36;19.40;65.10
57466;DHT22;67033;44.984;20.068;2023-04-25T14:46:02;19.80;66.80
57466;DHT22;67033;44.984;20.068;2023-04-25T14:48:29;19.60;65.10
57466;DHT22;67033;44.984;20.068;2023-04-25T14:50:55;19.70;65.40
57466;DHT22;67033;44.984;20.068;2023-04-25T14:53:22;19.70;66.10
57466;DHT22;67033;44.984;20.068;2023-04-25T14:55:48;19.80;63.40
57466;DHT22;67033;44.984;20.068;2023-04-25T14:58:14;19.60;62.40
57466;DHT22;67033;44.984;20.068;2023-04-25T15:00:41;19.40;62.30
57466;DHT22;67033;44.984;20.068;2023-04-25T15:03:11;19.30;62.50
57466;DHT22;67033;44.984;20.068;2023-04-25T15:05:43;19.30;63.50
57466;DHT22;67033;44.984;20.068;2023-04-25T15:08:09;19.30;64.70
57466;DHT22;67033;44.984;20.068;2023-04-25T15:10:38;19.30;65.20
57466;DHT22;67033;44.984;20.068;2023-04-25T15:13:04;19.20;65.50
57466;DHT22;67033;44.984;20.068;2023-04-25T15:15:30;19.10;64.60
57466;DHT22;67033;44.984;20.068;2023-04-25T15:17:57;19.10;64.10
57466;DHT22;67033;44.984;20.068;2023-04-25T15:20:24;18.90;64.20
57466;DHT22;67033;44.984;20.068;2023-04-25T15:22:50;19.00;64.40
57466;DHT22;67033;44.984;20.068;2023-04-25T15:25:16;19.00;65.90
57466;DHT22;67033;44.984;20.068;2023-04-25T15:27:45;19.00;65.70
57466;DHT22;67033;44.984;20.068;2023-04-25T15:30:16;18.80;65.60
57466;DHT22;67033;44.984;20.068;2023-04-25T15:32:43;18.70;66.20
57466;DHT22;67033;44.984;20.068;2023-04-25T15:35:09;18.40;66.60
57466;DHT22;67033;44.984;20.068;2023-04-25T15:37:36;18.40;67.10
57466;DHT22;67033;44.984;20.068;2023-04-25T15:40:14;18.30;67.80
57466;DHT22;67033;44.984;20.068;2023-04-25T15:42:42;18.10;68.40
57466;DHT22;67033;44.984;20.068;2023-04-25T15:45:09;18.10;70.40
57466;DHT22;67033;44.984;20.068;2023-04-25T15:50:04;17.90;82.60
57466;DHT22;67033;44.984;20.068;2023-04-25T15:52:31;17.80;70.90
57466;DHT22;67033;44.984;20.068;2023-04-25T15:54:57;17.60;71.60
57466;DHT22;67033;44.984;20.068;2023-04-25T15:57:23;17.50;74.00
57466;DHT22;67033;44.984;20.068;2023-04-25T15:59:49;17.30;72.40
57466;DHT22;67033;44.984;20.068;2023-04-25T16:02:16;17.40;74.20
57466;DHT22;67033;44.984;20.068;2023-04-25T16:04:43;17.20;74.20
57466;DHT22;67033;44.984;20.068;2023-04-25T16:07:09;17.10;73.00
57466;DHT22;67033;44.984;20.068;2023-04-25T16:09:36;17.10;75.50
57466;DHT22;67033;44.984;20.068;2023-04-25T16:12:02;17.30;75.90
57466;DHT22;67033;44.984;20.068;2023-04-25T16:14:28;17.30;74.30
57466;DHT22;67033;44.984;20.068;2023-04-25T16:16:55;17.30;75.20
57466;DHT22;67033;44.984;20.068;2023-04-25T16:19:21;17.30;75.40
57466;DHT22;67033;44.984;20.068;2023-04-25T16:21:47;17.30;74.70
57466;DHT22;67033;44.984;20.068;2023-04-25T16:24:13;17.40;74.60
57466;DHT22;67033;44.984;20.068;2023-04-25T16:26:39;17.30;74.30
57466;DHT22;67033;44.984;20.068;2023-04-25T16:29:08;17.30;74.30
57466;DHT22;67033;44.984;20.068;2023-04-25T16:31:34;17.30;75.30
57466;DHT22;67033;44.984;20.068;2023-04-25T16:34:01;17.30;75.40
57466;DHT22;67033;44.984;20.068;2023-04-25T16:36:28;17.40;75.30
57466;DHT22;67033;44.984;20.068;2023-04-25T16:38:54;17.30;76.90
57466;DHT22;67033;44.984;20.068;2023-04-25T16:41:20;17.10;75.50
57466;DHT22;67033;44.984;20.068;2023-04-25T16:43:46;17.10;76.60
57466;DHT22;67033;44.984;20.068;2023-04-25T16:46:11;17.10;81.10
57466;DHT22;67033;44.984;20.068;2023-04-25T16:48:38;17.00;78.50
57466;DHT22;67033;44.984;20.068;2023-04-25T16:51:04;17.00;78.60
57466;DHT22;67033;44.984;20.068;2023-04-25T16:53:31;16.80;79.20
57466;DHT22;67033;44.984;20.068;2023-04-25T16:55:57;16.70;79.70
57466;DHT22;67033;44.984;20.068;2023-04-25T16:58:23;16.60;80.70
57466;DHT22;67033;44.984;20.068;2023-04-25T17:00:49;16.50;80.60
57466;DHT22;67033;44.984;20.068;2023-04-25T17:03:15;16.50;83.60
57466;DHT22;67033;44.984;20.068;2023-04-25T17:05:41;16.40;82.90
57466;DHT22;67033;44.984;20.068;2023-04-25T17:08:06;16.40;84.50
57466;DHT22;67033;44.984;20.068;2023-04-25T17:10:32;16.40;85.00
57466;DHT22;67033;44.984;20.068;2023-04-25T17:12:58;16.30;86.10
57466;DHT22;67033;44.984;20.068;2023-04-25T17:15:24;16.20;87.00
57466;DHT22;67033;44.984;20.068;2023-04-25T17:17:50;16.20;87.90
57466;DHT22;67033;44.984;20.068;2023-04-25T17:20:16;16.10;89.50
57466;DHT22;67033;44.984;20.068;2023-04-25T17:22:43;16.00;90.40
57466;DHT22;67033;44.984;20.068;2023-04-25T17:25:10;15.90;91.00
57466;DHT22;67033;44.984;20.068;2023-04-25T17:27:36;15.80;91.50
57466;DHT22;67033;44.984;20.068;2023-04-25T17:30:03;15.70;91.90
57466;DHT22;67033;44.984;20.068;2023-04-25T17:32:30;15.70;93.00
57466;DHT22;67033;44.984;20.068;2023-04-25T17:34:55;15.70;93.50
57466;DHT22;67033;44.984;20.068;2023-04-25T17:37:22;15.60;94.90
57466;DHT22;67033;44.984;20.068;2023-04-25T17:39:51;15.50;95.50
57466;DHT22;67033;44.984;20.068;2023-04-25T17:42:16;15.40;96.50
57466;DHT22;67033;44.984;20.068;2023-04-25T17:44:43;15.50;99.90
57466;DHT22;67033;44.984;20.068;2023-04-25T17:47:09;15.50;99.30
57466;DHT22;67033;44.984;20.068;2023-04-25T17:49:36;15.50;98.10
57466;DHT22;67033;44.984;20.068;2023-04-25T17:52:02;15.40;99.00
57466;DHT22;67033;44.984;20.068;2023-04-25T17:54:28;15.30;99.20
57466;DHT22;67033;44.984;20.068;2023-04-25T17:56:54;15.10;99.90
57466;DHT22;67033;44.984;20.068;2023-04-25T17:59:21;15.10;99.90
57466;DHT22;67033;44.984;20.068;2023-04-25T18:01:47;15.10;99.90
57466;DHT22;67033;44.984;20.068;2023-04-25T18:04:13;15.10;99.90
57466;DHT22;67033;44.984;20.068;2023-04-25T18:06:39;15.00;99.90
57466;DHT22;67033;44.984;20.068;2023-04-25T18:09:06;15.00;99.90
57466;DHT22;67033;44.984;20.068;2023-04-25T18:11:45;15.10;99.90
57466;DHT22;67033;44.984;20.068;2023-04-25T18:14:12;15.10;99.90
57466;DHT22;67033;44.984;20.068;2023-04-25T18:16:43;15.00;99.90
57466;DHT22;67033;44.984;20.068;2023-04-25T18:19:10;14.90;99.90
57466;DHT22;67033;44.984;20.068;2023-04-25T18:21:37;14.70;99.90
57466;DHT22;67033;44.984;20.068;2023-04-25T18:24:04;14.70;99.90
57466;DHT22;67033;44.984;20.068;2023-04-25T18:26:30;14.60;99.90
57466;DHT22;67033;44.984;20.068;2023-04-25T18:28:56;14.60;99.90
57466;DHT22;67033;44.984;20.068;2023-04-25T18:31:22;14.60;99.90
57466;DHT22;67033;44.984;20.068;2023-04-25T18:33:49;14.60;99.90
57466;DHT22;67033;44.984;20.068;2023-04-25T18:36:15;14.70;99.90
57466;DHT22;67033;44.984;20.068;2023-04-25T18:38:41;14.80;99.90
57466;DHT22;67033;44.984;20.068;2023-04-25T18:41:07;14.80;99.90
57466;DHT22;67033;44.984;20.068;2023-04-25T18:43:33;14.70;99.90
